createdAt,value
2019-01-05T00:01:29.628Z,15.07
2019-01-05T00:07:23.235Z,12.47
2019-01-05T00:10:05.451Z,18.73
2019-01-05T00:12:48.211Z,13.50
2019-01-05T00:15:48.566Z,16.20
2019-01-05T00:18:48.686Z,15.03
2019-01-05T00:21:31.410Z,16.67
2019-01-05T00:27:39.024Z,19.90
2019-01-05T00:30:21.042Z,22.70
2019-01-05T00:33:20.888Z,23.57
2019-01-05T00:36:05.560Z,23.30
2019-01-05T00:39:05.472Z,20.87
2019-01-05T00:44:59.776Z,30.00
2019-01-05T00:50:53.734Z,31.00
2019-01-05T00:53:53.656Z,34.30
2019-01-05T00:56:35.976Z,29.13
2019-01-05T01:02:43.426Z,34.33
2019-01-05T01:05:43.511Z,24.17
2019-01-05T01:08:29.046Z,30.87
2019-01-05T01:11:11.421Z,28.93
2019-01-05T01:13:56.496Z,29.80
2019-01-05T01:16:56.765Z,30.50
2019-01-05T01:19:56.407Z,26.97
2019-01-05T01:28:43.245Z,26.73
2019-01-05T01:31:42.777Z,24.93
2019-01-05T01:34:27.663Z,20.37
2019-01-05T01:40:22.241Z,21.53
2019-01-05T01:43:04.927Z,32.40
2019-01-05T01:45:50.394Z,23.77
2019-01-05T01:48:50.269Z,30.93
2019-01-05T01:51:50.249Z,26.57
2019-01-05T01:54:35.489Z,21.20
2019-01-05T01:57:18.186Z,21.93
2019-01-05T02:00:00.258Z,19.83
2019-01-05T02:08:34.576Z,18.40
2019-01-05T02:11:34.230Z,17.65
2019-01-05T02:14:16.766Z,13.43
2019-01-05T02:17:16.863Z,15.10
2019-01-05T02:20:17.229Z,22.67
2019-01-05T02:23:17.699Z,15.10
2019-01-05T02:26:00.071Z,14.90
2019-01-05T02:28:59.927Z,12.20
2019-01-05T02:31:42.578Z,11.93
2019-01-05T02:34:28.194Z,17.33
2019-01-05T02:37:28.419Z,13.53
2019-01-05T02:43:18.163Z,12.97
2019-01-05T02:46:03.359Z,12.67
2019-01-05T02:49:02.988Z,16.57
2019-01-05T02:52:03.225Z,13.83
2019-01-05T02:58:23.517Z,14.97
2019-01-05T03:01:49.879Z,16.30
2019-01-05T03:05:16.305Z,11.43
2019-01-05T03:08:24.911Z,14.63
2019-01-05T03:11:33.685Z,16.97
2019-01-05T03:15:00.032Z,12.50
2019-01-05T03:18:26.427Z,12.40
2019-01-05T03:21:52.768Z,11.33
2019-01-05T03:25:01.891Z,13.97
2019-01-05T03:28:10.512Z,10.47
2019-01-05T03:31:36.932Z,15.87
2019-01-05T03:35:03.339Z,14.77
2019-01-05T03:38:29.761Z,11.47
2019-01-05T03:41:56.099Z,14.73
2019-01-05T03:45:04.720Z,10.13
2019-01-05T03:48:05.049Z,13.27
2019-01-05T03:53:44.051Z,12.43
2019-01-05T03:59:37.420Z,12.63
2019-01-05T04:02:22.651Z,11.33
2019-01-05T04:08:14.608Z,9.57
2019-01-05T04:10:59.633Z,7.70
2019-01-05T04:19:30.225Z,12.30
2019-01-05T04:25:20.256Z,14.20
2019-01-05T04:28:20.583Z,10.30
2019-01-05T04:31:20.882Z,13.27
2019-01-05T04:34:03.392Z,13.10
2019-01-05T04:37:03.155Z,7.60
2019-01-05T04:40:02.722Z,17.40
2019-01-05T04:42:48.071Z,13.10
2019-01-05T04:45:33.358Z,8.43
2019-01-05T04:48:15.993Z,9.97
2019-01-05T04:50:58.134Z,9.50
2019-01-05T04:57:06.721Z,10.63
2019-01-05T05:00:33.203Z,10.27
2019-01-05T05:03:59.603Z,12.33
2019-01-05T05:07:26.015Z,11.13
2019-01-05T05:10:34.637Z,7.67
2019-01-05T05:14:01.076Z,12.80
2019-01-05T05:17:27.491Z,8.87
2019-01-05T05:20:53.802Z,13.03
2019-01-05T05:24:20.151Z,8.30
2019-01-05T05:27:46.477Z,10.70
2019-01-05T05:31:12.849Z,8.73
2019-01-05T05:34:39.239Z,11.17
2019-01-05T05:41:20.306Z,6.97
2019-01-05T05:44:46.716Z,11.17
2019-01-05T05:47:46.445Z,10.70
2019-01-05T05:50:31.408Z,11.13
2019-01-05T05:53:39.951Z,10.00
2019-01-05T05:57:06.380Z,14.17
2019-01-05T06:00:15.018Z,10.77
2019-01-05T06:03:41.423Z,9.60
2019-01-05T06:06:49.978Z,7.00
2019-01-05T06:13:31.312Z,10.37
2019-01-05T06:16:39.847Z,9.97
2019-01-05T06:19:48.659Z,10.27
2019-01-05T06:26:42.935Z,7.73
2019-01-05T06:30:09.359Z,11.43
2019-01-05T06:33:35.744Z,13.23
2019-01-05T06:37:02.083Z,13.40
2019-01-05T06:40:28.524Z,10.10
2019-01-05T06:43:54.948Z,9.53
2019-01-05T06:46:54.495Z,10.27
2019-01-05T06:49:54.380Z,13.00
2019-01-05T06:52:54.023Z,9.70
2019-01-05T06:55:36.403Z,12.00
2019-01-05T06:58:19.028Z,11.47
2019-01-05T07:01:04.294Z,12.60
2019-01-05T07:03:49.347Z,14.10
2019-01-05T07:06:48.906Z,12.53
2019-01-05T07:09:49.105Z,15.37
2019-01-05T07:15:43.687Z,11.93
2019-01-05T07:18:28.840Z,11.10
2019-01-05T07:21:14.126Z,10.40
2019-01-05T07:24:14.186Z,11.53
2019-01-05T07:27:14.392Z,14.13
2019-01-05T07:33:03.681Z,15.17
2019-01-05T07:36:03.862Z,14.53
2019-01-05T07:39:04.057Z,15.60
2019-01-05T07:41:47.274Z,14.70
2019-01-05T07:44:47.651Z,13.13
2019-01-05T07:47:47.778Z,13.03
2019-01-05T07:53:41.970Z,15.77
2019-01-05T07:56:27.361Z,16.00
2019-01-05T07:59:27.265Z,11.30
2019-01-05T08:02:10.074Z,17.70
2019-01-05T08:04:52.236Z,14.40
2019-01-05T08:10:46.768Z,14.70
2019-01-05T08:13:28.698Z,12.83
2019-01-05T08:16:28.310Z,14.63
2019-01-05T08:19:10.718Z,20.07
2019-01-05T08:21:53.394Z,15.00
2019-01-05T08:24:53.508Z,15.90
2019-01-05T08:27:53.877Z,13.97
2019-01-05T08:30:53.334Z,16.20
2019-01-05T08:33:47.026Z,18.47
2019-01-05T08:36:47.086Z,17.60
2019-01-05T08:39:32.356Z,13.67
2019-01-05T08:42:32.192Z,19.77
2019-01-05T08:45:31.882Z,16.63
2019-01-05T08:48:31.670Z,18.53
2019-01-05T08:51:14.466Z,18.23
2019-01-05T08:53:56.941Z,16.53
2019-01-05T08:56:57.390Z,24.57
2019-01-05T08:59:40.206Z,16.83
2019-01-05T09:05:17.580Z,17.17
2019-01-05T09:12:01.212Z,20.07
2019-01-05T09:15:27.632Z,18.93
2019-01-05T09:22:08.813Z,17.17
2019-01-05T09:25:35.208Z,15.60
2019-01-05T09:29:01.546Z,16.93
2019-01-05T09:32:27.880Z,18.90
2019-01-05T09:35:54.330Z,16.17
2019-01-05T09:39:02.939Z,17.33
2019-01-05T09:42:29.360Z,14.50
2019-01-05T09:45:55.770Z,18.63
2019-01-05T09:49:04.404Z,18.13
2019-01-05T09:52:30.847Z,19.17
2019-01-05T09:55:39.468Z,20.03
2019-01-05T09:59:05.922Z,18.97
2019-01-05T10:02:14.537Z,13.43
2019-01-05T10:08:56.294Z,20.37
2019-01-05T10:12:24.437Z,19.07
2019-01-05T10:15:33.023Z,18.67
2019-01-05T10:18:41.640Z,20.17
2019-01-05T10:22:08.782Z,18.23
2019-01-05T10:25:35.202Z,22.40
2019-01-05T10:29:01.615Z,17.23
2019-01-05T10:32:10.138Z,25.30
2019-01-05T10:35:36.552Z,25.03
2019-01-05T10:39:02.978Z,24.30
2019-01-05T10:42:11.747Z,27.37
2019-01-05T10:45:38.183Z,26.13
2019-01-05T10:48:20.704Z,30.57
2019-01-05T10:51:05.953Z,28.83
2019-01-05T10:54:05.878Z,26.73
2019-01-05T10:56:50.847Z,23.07
2019-01-05T10:59:50.418Z,28.90
2019-01-05T11:02:35.422Z,26.40
2019-01-05T11:05:35.015Z,32.27
2019-01-05T11:08:35.678Z,32.97
2019-01-05T11:12:02.091Z,26.80
2019-01-05T11:15:28.540Z,34.47
2019-01-05T11:18:55.000Z,23.80
2019-01-05T11:22:21.429Z,24.10
2019-01-05T11:25:47.839Z,28.73
2019-01-05T11:29:14.168Z,32.80
2019-01-05T11:32:40.547Z,25.13
2019-01-05T11:36:06.973Z,29.53
2019-01-05T11:39:33.384Z,27.87
2019-01-05T11:43:00.140Z,25.00
2019-01-05T11:45:45.120Z,27.73
2019-01-05T11:48:45.140Z,34.70
2019-01-05T11:51:45.143Z,31.93
2019-01-05T11:57:21.289Z,28.93
2019-01-05T12:00:21.709Z,29.33
2019-01-05T12:03:21.516Z,24.97
2019-01-05T12:06:21.559Z,31.70
2019-01-05T12:09:21.720Z,29.97
2019-01-05T12:15:00.943Z,31.07
2019-01-05T12:17:43.002Z,28.93
2019-01-05T12:20:28.204Z,24.77
2019-01-05T12:23:27.838Z,28.60
2019-01-05T12:26:27.572Z,35.30
2019-01-05T12:29:27.789Z,27.73
2019-01-05T12:32:13.443Z,30.23
2019-01-05T12:35:13.715Z,29.47
2019-01-05T12:41:02.537Z,30.20
2019-01-05T12:44:02.608Z,24.87
2019-01-05T12:49:39.899Z,24.53
2019-01-05T12:52:39.624Z,24.67
2019-01-05T12:55:21.959Z,26.27
2019-01-05T12:58:22.236Z,26.23
2019-01-05T13:01:22.335Z,25.70
2019-01-05T13:04:07.210Z,32.07
2019-01-05T13:10:13.992Z,26.70
2019-01-05T13:16:05.869Z,26.93
2019-01-05T13:19:05.858Z,30.00
2019-01-05T13:22:05.923Z,29.10
2019-01-05T13:25:06.245Z,29.73
2019-01-05T13:27:49.086Z,32.80
2019-01-05T13:34:15.218Z,28.83
2019-01-05T13:37:23.772Z,26.93
2019-01-05T13:40:50.202Z,30.27
2019-01-05T13:43:58.810Z,30.77
2019-01-05T13:47:25.256Z,29.33
2019-01-05T13:50:33.883Z,28.87
2019-01-05T13:53:42.501Z,38.00
2019-01-05T13:56:49.700Z,30.20
2019-01-05T13:59:56.807Z,35.80
2019-01-05T14:03:04.009Z,33.27
2019-01-05T14:06:11.112Z,34.60
2019-01-05T14:09:18.133Z,31.80
2019-01-05T14:12:00.104Z,30.53
2019-01-05T14:14:45.173Z,28.53
2019-01-05T14:20:38.875Z,26.63
2019-01-05T14:23:38.957Z,32.93
2019-01-05T14:26:39.026Z,28.07
2019-01-05T14:29:39.034Z,27.70
2019-01-05T14:32:21.729Z,26.37
2019-01-05T14:35:04.072Z,26.93
2019-01-05T14:37:50.091Z,31.57
2019-01-05T14:44:05.690Z,31.20
2019-01-05T14:47:12.777Z,32.50
2019-01-05T14:50:19.903Z,25.20
2019-01-05T14:53:27.011Z,35.73
2019-01-05T14:56:34.079Z,33.37
2019-01-05T14:59:41.114Z,36.20
2019-01-05T15:02:28.865Z,31.40
2019-01-05T15:08:35.103Z,28.07
2019-01-05T15:11:20.003Z,35.40
2019-01-05T15:17:09.503Z,40.27
2019-01-05T15:23:01.561Z,26.37
2019-01-05T15:26:01.720Z,26.97
2019-01-05T15:29:01.660Z,30.13
2019-01-05T15:31:44.113Z,28.27
2019-01-05T15:34:43.745Z,32.57
2019-01-05T15:37:26.342Z,26.47
2019-01-05T15:40:26.028Z,31.83
2019-01-05T15:43:26.422Z,27.27
2019-01-05T15:46:33.819Z,32.57
2019-01-05T15:49:40.907Z,30.97
2019-01-05T15:52:47.948Z,29.10
2019-01-05T15:55:54.959Z,24.60
2019-01-05T15:59:02.068Z,27.53
2019-01-05T16:02:09.143Z,23.27
2019-01-05T16:08:11.021Z,35.87
2019-01-05T16:11:18.103Z,26.37
2019-01-05T16:14:25.231Z,32.47
2019-01-05T16:17:32.572Z,27.73
2019-01-05T16:20:40.021Z,31.57
2019-01-05T16:23:47.188Z,26.53
2019-01-05T16:26:59.084Z,34.67
2019-01-05T16:30:03.020Z,27.67
2019-01-05T16:33:10.150Z,35.30
2019-01-05T16:36:17.242Z,27.67
2019-01-05T16:39:24.964Z,33.47
2019-01-05T16:42:32.089Z,32.27
2019-01-05T16:45:31.977Z,32.07
2019-01-05T16:48:32.378Z,30.87
2019-01-05T16:57:32.058Z,29.80
2019-01-05T17:00:31.682Z,32.23
2019-01-05T17:03:13.706Z,33.67
2019-01-05T17:06:13.504Z,27.43
2019-01-05T17:09:13.800Z,28.80
2019-01-05T17:12:13.819Z,37.50
2019-01-05T17:15:13.611Z,33.53
2019-01-05T17:17:58.283Z,33.37
2019-01-05T17:20:41.207Z,37.67
2019-01-05T17:23:40.127Z,30.10
2019-01-05T17:26:47.192Z,36.40
2019-01-05T17:29:54.307Z,36.53
2019-01-05T17:33:01.418Z,34.33
2019-01-05T17:36:09.177Z,28.17
2019-01-05T17:39:16.295Z,34.17
2019-01-05T17:42:23.386Z,31.40
2019-01-05T17:48:29.011Z,32.57
2019-01-05T17:51:36.080Z,31.30
2019-01-05T17:54:43.198Z,27.27
2019-01-05T17:57:50.327Z,25.57
2019-01-05T18:00:57.423Z,26.33
2019-01-05T18:04:04.517Z,32.53
2019-01-05T18:07:11.725Z,28.40
2019-01-05T18:10:18.784Z,30.60
2019-01-05T18:13:01.962Z,26.00
2019-01-05T18:15:45.442Z,27.37
2019-01-05T18:18:52.551Z,35.07
2019-01-05T18:21:59.684Z,32.13
2019-01-05T18:25:06.823Z,27.60
2019-01-05T18:31:22.455Z,38.23
2019-01-05T18:37:27.876Z,28.90
2019-01-05T18:40:35.251Z,36.00
2019-01-05T18:44:01.654Z,43.23
2019-01-05T18:47:08.749Z,36.57
2019-01-05T18:53:24.406Z,35.83
2019-01-05T18:56:31.514Z,36.27
2019-01-05T18:59:38.626Z,34.90
2019-01-05T19:02:46.016Z,29.73
2019-01-05T19:05:55.250Z,36.00
2019-01-05T19:09:04.203Z,40.40
2019-01-05T19:12:11.769Z,37.23
2019-01-05T19:15:18.942Z,41.63
2019-01-05T19:18:01.717Z,44.83
2019-01-05T19:21:01.847Z,45.30
2019-01-05T19:23:44.547Z,42.87
2019-01-05T19:26:30.097Z,49.70
2019-01-05T19:29:29.719Z,64.67
2019-01-05T19:35:21.118Z,65.60
2019-01-05T19:38:28.225Z,52.00
2019-01-05T19:41:35.304Z,56.50
2019-01-05T19:44:42.409Z,77.97
2019-01-05T19:47:49.598Z,57.77
2019-01-05T19:50:56.714Z,57.17
2019-01-05T19:54:03.813Z,51.63
2019-01-05T19:57:13.051Z,48.70
2019-01-05T20:03:28.743Z,44.10
2019-01-05T20:12:42.590Z,32.60
2019-01-05T20:15:50.252Z,40.70
2019-01-05T20:18:57.376Z,34.30
2019-01-05T20:22:04.467Z,45.87
2019-01-05T20:25:11.585Z,43.43
2019-01-05T20:28:31.187Z,53.27
2019-01-05T20:34:26.542Z,57.53
2019-01-05T20:37:09.027Z,71.80
2019-01-05T20:39:55.483Z,58.83
2019-01-05T20:42:55.486Z,64.70
2019-01-05T20:45:40.526Z,59.80
2019-01-05T20:48:40.733Z,86.80
2019-01-05T20:54:34.924Z,57.30
2019-01-05T20:57:35.306Z,55.43
2019-01-05T21:00:35.353Z,60.27
2019-01-05T21:03:20.451Z,70.17
2019-01-05T21:12:22.470Z,61.00
2019-01-05T21:17:58.287Z,57.40
2019-01-05T21:20:41.226Z,46.30
2019-01-05T21:23:48.336Z,73.33
2019-01-05T21:26:57.210Z,50.13
2019-01-05T21:33:12.833Z,61.27
2019-01-05T21:36:19.968Z,87.50
2019-01-05T21:39:27.063Z,46.67
2019-01-05T21:42:34.172Z,73.17
2019-01-05T21:45:41.280Z,44.90
2019-01-05T21:48:48.432Z,52.93
2019-01-05T21:51:55.514Z,57.97
2019-01-05T21:55:02.660Z,48.63
2019-01-05T22:01:18.850Z,84.60
2019-01-05T22:04:25.977Z,60.60
2019-01-05T22:07:33.064Z,64.23
2019-01-05T22:10:40.190Z,42.30
2019-01-05T22:13:47.303Z,75.80
2019-01-05T22:19:52.839Z,41.43
2019-01-05T22:23:02.205Z,52.00
2019-01-05T22:26:09.312Z,42.17
2019-01-05T22:29:18.988Z,51.63
2019-01-05T22:32:26.100Z,53.80
2019-01-05T22:35:33.211Z,49.47
2019-01-05T22:38:40.315Z,51.97
2019-01-05T22:44:55.938Z,46.30
2019-01-05T22:48:03.043Z,44.27
2019-01-05T22:51:10.152Z,54.47
2019-01-05T22:54:17.264Z,52.43
2019-01-05T22:57:24.356Z,43.50
2019-01-05T23:00:31.743Z,55.33
2019-01-05T23:06:47.350Z,36.93
2019-01-05T23:09:54.480Z,55.03
2019-01-05T23:13:01.562Z,36.57
2019-01-05T23:16:08.671Z,34.30
2019-01-05T23:19:15.759Z,35.90
2019-01-05T23:22:22.893Z,40.30
2019-01-05T23:25:22.821Z,37.87
2019-01-05T23:31:17.161Z,39.97
2019-01-05T23:34:17.479Z,36.07
2019-01-05T23:37:17.042Z,38.17
2019-01-05T23:43:11.533Z,32.30
2019-01-05T23:45:57.750Z,30.40
2019-01-05T23:49:04.852Z,39.50
2019-01-05T23:52:26.099Z,34.83
2019-01-05T23:55:20.693Z,34.90
2019-01-05T23:58:29.559Z,35.90
